Time;durP1;ratioP1;P1;durP2;ratioP2;P2;SDS_P1;SDS_P2;PMS_P1;PMS_P2;Temp;Humidity;BMP_temperature;BMP_pressure;BME280_temperature;BME280_humidity;BME280_pressure;Samples;Min_cycle;Max_cycle;Signal;HPM_P1;HPM_P2
2022/09/29 00:00:43;;;;;;;9.70;8.30;;;16.10;99.90;;;;;;5136633;27;20195;-74
2022/09/29 00:03:08;;;;;;;12.40;9.40;;;16.10;99.90;;;;;;5136523;27;20407;-74
2022/09/29 00:05:34;;;;;;;11.23;9.30;;;16.10;99.90;;;;;;5118076;27;20314;-74
2022/09/29 00:08:00;;;;;;;9.23;7.70;;;16.10;99.90;;;;;;5136725;27;20182;-74
2022/09/29 00:10:26;;;;;;;11.23;9.40;;;16.10;99.90;;;;;;5118004;27;20203;-74
2022/09/29 00:12:52;;;;;;;11.33;9.30;;;16.10;99.90;;;;;;5136624;27;20919;-74
2022/09/29 00:15:17;;;;;;;14.03;9.83;;;16.00;99.90;;;;;;5136318;27;20199;-74
2022/09/29 00:17:43;;;;;;;12.97;10.30;;;16.00;99.90;;;;;;5136419;27;20930;-74
2022/09/29 00:20:09;;;;;;;13.63;10.07;;;16.00;99.90;;;;;;5136279;27;20723;-75
2022/09/29 00:22:34;;;;;;;12.30;10.00;;;15.90;99.90;;;;;;5136382;27;20160;-74
2022/09/29 00:25:00;;;;;;;13.50;10.70;;;15.90;99.90;;;;;;5136026;27;20214;-74
2022/09/29 00:27:26;;;;;;;10.17;8.77;;;15.90;99.90;;;;;;5136319;27;20171;-74
2022/09/29 00:29:51;;;;;;;11.80;8.90;;;15.90;99.90;;;;;;5117681;27;20195;-74
2022/09/29 00:32:17;;;;;;;10.37;8.63;;;15.90;99.90;;;;;;5117622;27;20171;-74
2022/09/29 00:34:43;;;;;;;9.93;8.40;;;15.80;99.90;;;;;;5135970;27;20683;-74
2022/09/29 00:37:08;;;;;;;12.07;8.43;;;15.80;99.90;;;;;;5117588;27;20203;-74
2022/09/29 00:39:34;;;;;;;11.73;9.80;;;15.80;99.90;;;;;;5117492;27;20470;-74
2022/09/29 00:42:00;;;;;;;13.93;11.20;;;15.80;99.90;;;;;;5135876;27;20167;-74
2022/09/29 00:44:56;;;;;;;14.40;9.47;;;15.80;99.90;;;;;;5135573;27;20590;-74
2022/09/29 00:47:24;;;;;;;13.70;9.57;;;15.80;99.90;;;;;;5135736;27;20179;-74
2022/09/29 00:50:16;;;;;;;13.27;9.77;;;15.70;99.90;;;;;;5135728;27;20463;-74
2022/09/29 00:53:03;;;;;;;12.20;8.90;;;15.70;99.90;;;;;;5117343;27;20427;-74
2022/09/29 00:55:35;;;;;;;13.63;10.03;;;15.70;99.90;;;;;;5135496;27;20443;-74
2022/09/29 00:58:04;;;;;;;14.47;9.43;;;15.70;99.90;;;;;;5117187;27;20507;-74
2022/09/29 01:00:29;;;;;;;10.27;8.70;;;15.70;99.90;;;;;;5135458;27;20491;-74
2022/09/29 01:03:01;;;;;;;11.20;8.67;;;15.60;99.90;;;;;;5135721;27;20891;-72
2022/09/29 01:05:33;;;;;;;15.70;10.07;;;15.70;99.90;;;;;;5135402;27;20261;-74
2022/09/29 01:08:10;;;;;;;10.90;8.80;;;15.60;99.90;;;;;;5117069;27;20419;-74
2022/09/29 01:10:55;;;;;;;12.20;8.50;;;15.60;99.90;;;;;;5116820;27;20438;-74
2022/09/29 01:13:21;;;;;;;10.33;8.60;;;15.50;99.90;;;;;;5135320;27;20800;-74
2022/09/29 01:15:46;;;;;;;9.57;8.57;;;15.50;99.90;;;;;;5135153;27;20437;-74
2022/09/29 01:18:12;;;;;;;9.53;7.87;;;15.50;99.90;;;;;;5135428;27;20415;-74
2022/09/29 01:21:02;;;;;;;8.87;6.93;;;15.50;99.90;;;;;;5135222;27;20194;-74
2022/09/29 01:24:02;;;;;;;9.00;6.90;;;15.50;99.90;;;;;;5117350;27;20659;-74
2022/09/29 01:26:39;;;;;;;9.43;7.20;;;15.50;99.90;;;;;;5116613;27;20515;-74
2022/09/29 01:29:34;;;;;;;12.07;7.30;;;15.50;99.90;;;;;;5135563;27;20423;-74
2022/09/29 01:32:28;;;;;;;9.53;7.63;;;15.50;99.90;;;;;;5134972;27;20410;-74
2022/09/29 01:35:06;;;;;;;7.80;6.67;;;15.50;99.90;;;;;;5116416;27;20447;-74
2022/09/29 01:38:01;;;;;;;9.37;7.00;;;15.50;99.90;;;;;;5135091;27;20449;-74
2022/09/29 01:40:50;;;;;;;8.03;7.00;;;15.50;99.90;;;;;;5134948;27;20435;-74
2022/09/29 01:43:52;;;;;;;8.57;6.50;;;15.50;99.90;;;;;;5134467;27;20455;-74
2022/09/29 01:46:27;;;;;;;9.33;6.60;;;15.50;99.90;;;;;;5097010;27;20868;-74
2022/09/29 01:48:55;;;;;;;8.73;7.53;;;15.50;99.90;;;;;;5135292;27;20450;-74
2022/09/29 01:51:28;;;;;;;12.03;7.50;;;15.50;99.90;;;;;;5134324;27;20427;-74
2022/09/29 01:53:59;;;;;;;9.67;7.23;;;15.50;99.90;;;;;;5135303;27;20431;-74
2022/09/29 01:56:35;;;;;;;8.70;7.30;;;15.50;99.90;;;;;;5134819;27;20430;-73
2022/09/29 01:59:11;;;;;;;8.00;7.20;;;15.50;99.90;;;;;;5135363;27;20551;-74
2022/09/29 02:01:39;;;;;;;8.63;7.70;;;15.50;99.90;;;;;;5116271;28;20438;-74
2022/09/29 02:04:35;;;;;;;7.83;7.00;;;15.50;99.90;;;;;;5116505;28;20455;-74
2022/09/29 02:07:15;;;;;;;11.93;7.10;;;15.40;99.90;;;;;;5116199;28;20494;-74
2022/09/29 02:09:44;;;;;;;8.73;6.77;;;15.40;99.90;;;;;;5134732;28;20427;-74
2022/09/29 02:12:16;;;;;;;10.53;7.07;;;15.40;99.90;;;;;;5134549;28;20911;-74
2022/09/29 02:14:46;;;;;;;10.30;7.03;;;15.40;99.90;;;;;;5134633;28;20427;-74
2022/09/29 02:17:18;;;;;;;7.97;7.00;;;15.40;99.90;;;;;;5116115;28;20422;-74
2022/09/29 02:19:46;;;;;;;8.23;7.17;;;15.50;99.90;;;;;;5116175;28;20847;-74
2022/09/29 02:22:13;;;;;;;9.73;7.90;;;15.40;99.90;;;;;;5134477;28;20487;-74
2022/09/29 02:24:39;;;;;;;10.70;7.40;;;15.50;99.90;;;;;;5134311;28;20493;-74
2022/09/29 02:27:05;;;;;;;11.13;7.93;;;15.40;99.90;;;;;;5115998;28;20407;-74
2022/09/29 02:29:32;;;;;;;12.40;8.30;;;15.50;99.90;;;;;;5115975;28;20561;-74
2022/09/29 02:32:01;;;;;;;17.20;8.90;;;15.50;99.90;;;;;;5134320;28;20452;-74
2022/09/29 02:34:33;;;;;;;9.20;8.23;;;15.50;99.90;;;;;;5134367;28;20403;-74
2022/09/29 02:37:10;;;;;;;14.10;9.30;;;15.50;99.90;;;;;;5134256;28;20738;-74
2022/09/29 02:40:14;;;;;;;12.20;8.50;;;15.50;99.90;;;;;;5134278;28;20468;-74
2022/09/29 02:42:55;;;;;;;12.53;8.77;;;15.50;99.90;;;;;;5134151;28;20462;-74
2022/09/29 02:45:44;;;;;;;13.83;8.13;;;15.50;99.90;;;;;;5134262;28;20519;-74
2022/09/29 02:48:22;;;;;;;10.33;8.13;;;15.50;99.90;;;;;;5134594;28;20407;-74
2022/09/29 02:50:56;;;;;;;9.90;7.60;;;15.50;99.90;;;;;;5134231;28;20416;-74
2022/09/29 02:53:31;;;;;;;11.23;8.17;;;15.60;99.90;;;;;;5116013;28;20427;-74
2022/09/29 02:56:06;;;;;;;11.93;7.57;;;15.60;99.90;;;;;;5134141;28;20454;-74
2022/09/29 02:58:45;;;;;;;7.70;6.90;;;15.60;99.90;;;;;;5115998;28;20421;-74
2022/09/29 03:01:15;;;;;;;8.00;6.27;;;15.60;99.90;;;;;;5115774;28;20445;-74
2022/09/29 03:03:41;;;;;;;8.43;5.90;;;15.70;99.90;;;;;;5117126;27;20418;-74
2022/09/29 03:06:06;;;;;;;7.73;5.63;;;15.60;99.90;;;;;;5119260;27;20481;-74
2022/09/29 03:08:32;;;;;;;6.57;5.97;;;15.70;99.90;;;;;;5119584;27;20183;-74
2022/09/29 03:10:58;;;;;;;7.10;6.00;;;15.70;99.90;;;;;;5137710;27;20199;-74
2022/09/29 03:13:24;;;;;;;6.33;5.10;;;15.70;99.90;;;;;;5138151;27;20620;-74
2022/09/29 03:15:50;;;;;;;6.67;5.70;;;15.70;99.90;;;;;;5137579;27;20427;-74
2022/09/29 03:18:15;;;;;;;10.67;6.30;;;15.70;99.90;;;;;;5137936;27;20831;-73
2022/09/29 03:20:41;;;;;;;8.23;5.50;;;15.70;99.90;;;;;;5137473;27;20203;-74
2022/09/29 03:23:07;;;;;;;7.23;6.33;;;15.70;99.90;;;;;;5137815;27;20177;-74
2022/09/29 03:25:32;;;;;;;7.53;5.80;;;15.80;99.90;;;;;;5137426;27;20782;-74
2022/09/29 03:27:58;;;;;;;7.83;5.60;;;15.80;99.90;;;;;;5119070;27;20184;-74
2022/09/29 03:30:24;;;;;;;12.47;6.63;;;15.80;99.90;;;;;;5137314;27;20285;-74
2022/09/29 03:32:49;;;;;;;7.90;5.17;;;15.80;99.90;;;;;;5137619;27;20195;-74
2022/09/29 03:35:15;;;;;;;7.47;5.60;;;15.80;99.90;;;;;;5137239;27;20475;-74
2022/09/29 03:37:41;;;;;;;6.90;5.70;;;15.80;99.90;;;;;;5137142;27;20178;-73
2022/09/29 03:40:07;;;;;;;6.93;5.30;;;15.80;99.90;;;;;;5137124;27;20542;-74
2022/09/29 03:42:32;;;;;;;8.30;6.37;;;15.80;99.90;;;;;;5136958;27;20276;-74
2022/09/29 03:44:58;;;;;;;8.70;6.60;;;15.80;99.90;;;;;;5118510;27;20563;-74
2022/09/29 03:47:24;;;;;;;7.67;5.97;;;15.80;99.90;;;;;;5137077;27;20247;-74
2022/09/29 03:49:49;;;;;;;7.77;6.13;;;15.80;99.90;;;;;;5137034;27;20191;-73
2022/09/29 03:52:15;;;;;;;9.30;6.23;;;15.80;99.90;;;;;;5118610;27;20680;-74
2022/09/29 03:54:40;;;;;;;8.03;6.77;;;15.80;99.90;;;;;;5136961;27;20203;-74
2022/09/29 03:57:06;;;;;;;7.67;6.23;;;15.80;99.90;;;;;;5136786;27;20254;-74
2022/09/29 03:59:32;;;;;;;9.77;6.23;;;15.80;99.90;;;;;;5118387;27;20218;-74
2022/09/29 04:01:58;;;;;;;11.20;6.97;;;15.80;99.90;;;;;;5136781;27;20171;-74
2022/09/29 04:04:23;;;;;;;11.90;6.83;;;15.70;99.90;;;;;;5118143;27;20245;-74
2022/09/29 04:06:49;;;;;;;11.53;7.53;;;15.70;99.90;;;;;;5136731;27;20171;-74
2022/09/29 04:09:14;;;;;;;10.27;7.27;;;15.70;99.90;;;;;;5137048;27;20171;-74
2022/09/29 04:11:40;;;;;;;9.87;8.30;;;15.70;99.90;;;;;;5136623;27;20182;-74
2022/09/29 04:14:06;;;;;;;12.20;8.50;;;15.60;99.90;;;;;;5136836;27;20168;-74
2022/09/29 04:16:32;;;;;;;14.27;7.80;;;15.60;99.90;;;;;;5136436;27;20243;-74
2022/09/29 04:18:57;;;;;;;9.30;7.90;;;15.60;99.90;;;;;;5136854;27;20254;-74
2022/09/29 04:21:23;;;;;;;9.67;7.50;;;15.60;99.90;;;;;;5117935;27;20482;-74
2022/09/29 04:23:48;;;;;;;9.67;7.67;;;15.60;99.90;;;;;;5136607;27;20171;-74
2022/09/29 04:26:15;;;;;;;12.07;7.90;;;15.50;99.90;;;;;;5136226;27;20201;-74
2022/09/29 04:28:41;;;;;;;11.37;7.93;;;15.50;99.90;;;;;;5116834;27;20190;-74
2022/09/29 04:31:07;;;;;;;9.77;7.50;;;15.50;99.90;;;;;;5133987;27;20447;-74
2022/09/29 04:33:33;;;;;;;10.97;8.87;;;15.50;99.90;;;;;;5105726;27;20769;-74
2022/09/29 04:35:59;;;;;;;9.37;8.07;;;15.50;99.90;;;;;;5117506;27;20474;-74
2022/09/29 04:38:25;;;;;;;11.87;7.77;;;15.50;99.90;;;;;;5117536;27;20459;-74
2022/09/29 04:40:51;;;;;;;11.17;8.33;;;15.60;99.90;;;;;;5135919;27;20916;-74
2022/09/29 04:43:17;;;;;;;10.60;8.10;;;15.60;99.90;;;;;;5135746;27;20533;-74
2022/09/29 04:45:43;;;;;;;13.30;8.30;;;15.60;99.90;;;;;;5117401;27;20219;-74
2022/09/29 04:48:08;;;;;;;11.60;9.00;;;15.60;99.90;;;;;;5112445;27;20518;-74
2022/09/29 04:50:34;;;;;;;13.50;8.37;;;15.60;99.90;;;;;;5133705;27;20566;-74
2022/09/29 04:52:59;;;;;;;13.47;8.73;;;15.60;99.90;;;;;;5117037;27;20186;-74
2022/09/29 04:55:25;;;;;;;14.13;9.10;;;15.60;99.90;;;;;;5132026;27;20612;-74
2022/09/29 04:57:51;;;;;;;12.00;9.27;;;15.60;99.90;;;;;;5131119;27;20187;-74
2022/09/29 05:00:17;;;;;;;10.43;8.73;;;15.60;99.90;;;;;;5135640;27;20758;-74
2022/09/29 05:02:43;;;;;;;13.57;10.43;;;15.60;99.90;;;;;;5134726;27;20418;-74
2022/09/29 05:05:11;;;;;;;14.90;8.63;;;15.60;99.90;;;;;;5132378;27;20512;-74
2022/09/29 05:07:38;;;;;;;14.70;9.33;;;15.60;99.90;;;;;;5134986;27;20407;-74
2022/09/29 05:10:05;;;;;;;16.10;9.77;;;15.50;99.90;;;;;;5135319;27;20458;-74
2022/09/29 05:12:30;;;;;;;11.20;8.53;;;15.50;99.90;;;;;;5116932;27;20427;-74
2022/09/29 05:14:56;;;;;;;11.90;9.43;;;15.50;99.90;;;;;;5132079;27;20520;-74
2022/09/29 05:17:21;;;;;;;18.77;10.43;;;15.60;99.90;;;;;;5124640;27;20290;-74
2022/09/29 05:19:47;;;;;;;19.10;9.77;;;15.60;99.90;;;;;;5111496;27;20207;-74
2022/09/29 05:22:13;;;;;;;12.07;9.93;;;15.60;99.90;;;;;;5112982;27;20194;-74
2022/09/29 05:24:38;;;;;;;12.90;9.87;;;15.70;99.90;;;;;;5114563;27;20253;-74
2022/09/29 05:27:04;;;;;;;16.97;11.00;;;15.70;99.90;;;;;;5122547;27;20636;-74
2022/09/29 05:29:30;;;;;;;15.30;11.27;;;15.70;99.90;;;;;;5131394;27;20195;-74
2022/09/29 05:31:55;;;;;;;23.20;12.00;;;15.70;99.90;;;;;;5124701;27;20712;-74
2022/09/29 05:34:21;;;;;;;15.13;11.50;;;15.70;99.90;;;;;;5128500;27;20277;-74
2022/09/29 05:36:47;;;;;;;14.00;11.07;;;15.70;99.90;;;;;;5110116;27;20701;-74
2022/09/29 05:39:12;;;;;;;17.20;11.70;;;15.70;99.90;;;;;;5121265;27;20427;-74
2022/09/29 05:41:38;;;;;;;18.63;11.30;;;15.70;99.90;;;;;;5118649;27;20240;-73
2022/09/29 05:44:04;;;;;;;14.17;11.97;;;15.80;99.90;;;;;;5104202;27;20218;-75
2022/09/29 05:46:30;;;;;;;15.40;11.10;;;15.80;99.90;;;;;;5123451;27;20256;-74
2022/09/29 05:48:59;;;;;;;15.63;12.07;;;15.80;99.90;;;;;;5118304;27;20490;-74
2022/09/29 05:51:26;;;;;;;16.47;12.50;;;15.80;99.90;;;;;;5124886;27;20243;-74
2022/09/29 05:53:52;;;;;;;18.13;13.37;;;15.90;99.90;;;;;;5129929;27;20925;-74
2022/09/29 05:56:21;;;;;;;17.50;11.87;;;15.90;99.90;;;;;;5106940;28;20479;-73
2022/09/29 05:58:47;;;;;;;22.47;12.73;;;15.90;99.90;;;;;;5132749;27;20430;-74
2022/09/29 06:01:22;;;;;;;16.77;11.13;;;15.90;99.90;;;;;;5113867;28;20443;-74
2022/09/29 06:03:49;;;;;;;18.30;12.70;;;15.90;99.90;;;;;;5130416;28;20430;-74
2022/09/29 06:06:18;;;;;;;15.20;11.67;;;15.90;99.90;;;;;;5131204;27;20538;-73
2022/09/29 06:08:44;;;;;;;17.27;12.50;;;16.00;99.90;;;;;;5110713;28;20539;-74
2022/09/29 06:11:18;;;;;;;18.33;12.03;;;16.00;99.90;;;;;;5111788;28;20435;-74
2022/09/29 06:13:47;;;;;;;16.20;12.13;;;16.00;99.90;;;;;;5127252;28;20427;-75
2022/09/29 06:16:13;;;;;;;19.77;13.27;;;16.10;99.90;;;;;;5109455;28;20446;-74
2022/09/29 06:18:39;;;;;;;22.80;15.67;;;16.10;99.90;;;;;;5123741;28;20415;-74
2022/09/29 06:21:05;;;;;;;20.00;14.60;;;16.20;99.90;;;;;;5113211;28;20981;-74
2022/09/29 06:23:32;;;;;;;18.07;12.40;;;16.20;99.90;;;;;;5125097;28;20172;-74
2022/09/29 06:26:00;;;;;;;20.20;14.27;;;16.30;99.90;;;;;;5130370;28;20505;-74
2022/09/29 06:28:27;;;;;;;21.83;15.13;;;16.30;99.90;;;;;;5112919;28;20506;-74
2022/09/29 06:31:02;;;;;;;23.03;14.00;;;16.30;99.90;;;;;;5127699;27;20972;-74
2022/09/29 06:33:28;;;;;;;19.80;14.20;;;16.30;99.90;;;;;;5127193;28;20559;-74
2022/09/29 06:38:38;;;;;;;17.73;13.60;;;16.40;99.90;;;;;;5135932;27;20457;-74
2022/09/29 06:41:05;;;;;;;18.03;14.40;;;16.40;99.90;;;;;;5116856;27;20470;-74
2022/09/29 06:43:31;;;;;;;20.20;14.90;;;16.40;99.90;;;;;;5128159;27;20325;-74
2022/09/29 06:45:56;;;;;;;16.30;12.90;;;16.50;99.90;;;;;;5112220;27;20551;-74
2022/09/29 06:48:22;;;;;;;17.70;13.60;;;16.60;99.90;;;;;;5113114;27;20186;-74
2022/09/29 06:50:47;;;;;;;21.40;13.60;;;16.60;99.90;;;;;;5133235;27;20243;-74
2022/09/29 06:53:13;;;;;;;23.53;14.57;;;16.70;99.90;;;;;;5132657;27;20319;-74
2022/09/29 06:55:39;;;;;;;17.77;14.23;;;16.70;99.90;;;;;;5116679;27;20210;-74
2022/09/29 06:58:04;;;;;;;20.27;13.83;;;16.80;99.90;;;;;;5131860;27;20525;-74
2022/09/29 07:00:32;;;;;;;19.97;13.70;;;16.80;99.90;;;;;;5114845;27;20400;-74
2022/09/29 07:02:57;;;;;;;18.77;13.83;;;16.90;99.90;;;;;;5128748;27;20225;-74
2022/09/29 07:05:23;;;;;;;20.53;15.17;;;17.00;99.90;;;;;;5114325;27;20478;-74
2022/09/29 07:07:48;;;;;;;26.13;14.23;;;17.00;99.90;;;;;;5118420;27;20266;-74
2022/09/29 07:10:14;;;;;;;18.70;13.17;;;17.10;99.90;;;;;;5133707;27;20679;-74
2022/09/29 07:12:40;;;;;;;19.07;13.43;;;17.20;99.90;;;;;;5110122;27;20228;-74
2022/09/29 07:15:06;;;;;;;19.27;13.03;;;17.10;99.90;;;;;;5113993;27;20460;-74
2022/09/29 07:17:32;;;;;;;16.40;12.17;;;17.20;99.90;;;;;;5130779;27;20433;-74
2022/09/29 07:19:58;;;;;;;20.23;14.10;;;17.20;99.90;;;;;;5124599;27;20511;-74
2022/09/29 07:22:23;;;;;;;16.07;10.90;;;17.30;99.90;;;;;;5106370;27;20172;-75
2022/09/29 07:24:52;;;;;;;16.33;12.33;;;17.40;99.90;;;;;;5120582;27;20474;-74
2022/09/29 07:27:23;;;;;;;17.17;11.80;;;17.40;99.90;;;;;;5104407;27;20171;-73
2022/09/29 07:29:50;;;;;;;14.53;12.30;;;17.50;99.90;;;;;;5104503;27;20521;-74
2022/09/29 07:32:16;;;;;;;16.90;12.87;;;17.60;99.90;;;;;;5120881;27;20854;-74
2022/09/29 07:34:42;;;;;;;18.03;12.20;;;17.60;99.90;;;;;;5127194;27;20518;-74
2022/09/29 07:37:08;;;;;;;16.00;13.10;;;17.70;99.90;;;;;;5131897;27;20507;-74
2022/09/29 07:39:33;;;;;;;14.67;11.73;;;17.70;99.90;;;;;;5132996;27;20199;-74
2022/09/29 07:41:59;;;;;;;14.30;11.10;;;17.70;99.90;;;;;;5103994;28;20176;-73
2022/09/29 07:44:25;;;;;;;19.90;12.13;;;17.70;99.90;;;;;;5102351;27;20227;-73
2022/09/29 07:46:50;;;;;;;20.27;12.40;;;17.60;99.90;;;;;;5132405;27;20175;-73
2022/09/29 07:49:16;;;;;;;19.30;12.90;;;17.60;99.90;;;;;;5132079;27;20248;-73
2022/09/29 07:51:42;;;;;;;17.80;13.00;;;17.60;99.90;;;;;;5125015;27;20211;-73
2022/09/29 07:54:08;;;;;;;15.87;12.27;;;17.70;99.90;;;;;;5102289;27;20454;-73
2022/09/29 07:56:34;;;;;;;21.93;14.53;;;17.70;99.90;;;;;;5130432;27;20200;-74
2022/09/29 07:59:01;;;;;;;22.10;13.20;;;17.80;99.90;;;;;;5133019;27;20168;-74
2022/09/29 08:01:27;;;;;;;15.07;13.30;;;17.90;99.90;;;;;;5110269;27;20475;-74
2022/09/29 08:03:54;;;;;;;18.63;13.87;;;17.90;99.90;;;;;;5111273;27;20420;-74
2022/09/29 08:06:20;;;;;;;20.33;13.97;;;18.00;99.90;;;;;;5112502;27;20517;-73
2022/09/29 08:08:46;;;;;;;17.47;12.60;;;18.10;99.90;;;;;;5116721;27;20434;-74
2022/09/29 08:11:15;;;;;;;18.30;14.10;;;18.20;99.90;;;;;;5125415;27;20521;-74
2022/09/29 08:13:40;;;;;;;18.63;13.77;;;18.30;99.90;;;;;;5126412;27;20523;-73
2022/09/29 08:16:09;;;;;;;20.50;14.90;;;18.30;99.90;;;;;;5110080;27;20535;-74
2022/09/29 08:18:36;;;;;;;19.00;15.07;;;18.40;99.90;;;;;;5123535;27;20176;-73
2022/09/29 08:21:03;;;;;;;21.97;14.73;;;18.40;99.90;;;;;;5124006;27;20987;-73
2022/09/29 08:23:30;;;;;;;20.83;15.17;;;18.50;99.90;;;;;;5108637;27;20965;-74
2022/09/29 08:26:22;;;;;;;15.07;12.93;;;18.60;99.90;;;;;;5115665;27;20471;-73
2022/09/29 08:28:48;;;;;;;17.10;14.67;;;18.80;99.90;;;;;;5133115;27;20420;-74
2022/09/29 08:31:20;;;;;;;17.40;15.13;;;18.90;99.90;;;;;;5133624;27;20456;-74
2022/09/29 08:33:48;;;;;;;20.10;14.87;;;18.90;99.90;;;;;;5121362;27;20524;-74
2022/09/29 08:36:15;;;;;;;17.53;14.77;;;19.00;99.90;;;;;;5114982;27;20529;-74
2022/09/29 08:38:46;;;;;;;16.70;14.07;;;19.00;99.90;;;;;;5132291;27;20433;-74
2022/09/29 08:41:41;;;;;;;13.13;11.60;;;19.20;99.90;;;;;;5112441;27;20780;-74
2022/09/29 08:44:19;;;;;;;14.60;11.20;;;19.70;99.90;;;;;;5126067;27;20486;-74
2022/09/29 08:46:51;;;;;;;15.80;11.23;;;20.30;99.90;;;;;;5093384;28;20439;-73
2022/09/29 08:49:28;;;;;;;15.80;11.67;;;20.60;99.90;;;;;;5115159;27;20417;-74
2022/09/29 08:51:58;;;;;;;13.67;9.93;;;20.80;99.90;;;;;;5124711;27;20823;-74
2022/09/29 08:54:32;;;;;;;11.83;9.23;;;20.80;99.90;;;;;;5124821;27;20426;-74
2022/09/29 08:56:59;;;;;;;8.93;7.70;;;20.80;99.90;;;;;;5113089;27;20981;-75
2022/09/29 08:59:28;;;;;;;7.53;6.83;;;20.70;99.90;;;;;;5122644;27;20423;-73
2022/09/29 09:02:02;;;;;;;7.63;5.40;;;20.60;99.90;;;;;;5117680;27;20426;-73
2022/09/29 09:04:40;;;;;;;7.33;6.20;;;20.60;99.90;;;;;;5120381;27;20468;-73
2022/09/29 09:07:38;;;;;;;7.33;6.50;;;20.60;99.90;;;;;;5129449;27;20435;-73
2022/09/29 09:10:36;;;;;;;7.80;7.03;;;20.60;99.90;;;;;;5115628;27;20520;-73
2022/09/29 09:13:10;;;;;;;7.00;6.30;;;20.60;99.90;;;;;;5120783;27;20500;-74
2022/09/29 09:15:44;;;;;;;8.97;7.50;;;20.70;99.90;;;;;;5113632;27;20443;-73
2022/09/29 09:18:33;;;;;;;9.13;6.33;;;20.70;99.90;;;;;;5104558;27;20448;-73
2022/09/29 09:21:04;;;;;;;3.73;3.43;;;20.70;99.90;;;;;;5126157;27;20435;-73
2022/09/29 09:23:43;;;;;;;3.33;3.03;;;20.70;99.90;;;;;;5125516;27;20934;-73
2022/09/29 09:26:10;;;;;;;4.13;3.60;;;20.70;99.90;;;;;;5122643;27;20488;-74
2022/09/29 09:28:44;;;;;;;13.07;4.37;;;20.70;99.90;;;;;;5123055;27;20447;-73
2022/09/29 09:31:15;;;;;;;3.90;3.60;;;20.70;99.90;;;;;;5110943;27;20462;-73
2022/09/29 09:33:53;;;;;;;5.30;3.67;;;20.70;99.90;;;;;;5121555;27;20435;-73
2022/09/29 09:36:30;;;;;;;3.43;3.13;;;20.60;99.90;;;;;;5121423;27;20474;-73
2022/09/29 09:39:03;;;;;;;3.03;2.73;;;20.70;99.90;;;;;;5107365;27;20491;-74
2022/09/29 09:41:30;;;;;;;3.20;2.40;;;20.70;99.90;;;;;;5113660;27;21413;-73
2022/09/29 09:44:10;;;;;;;2.60;2.13;;;20.70;99.90;;;;;;5133201;27;20475;-74
2022/09/29 09:46:38;;;;;;;2.67;2.47;;;20.80;99.90;;;;;;5105983;27;20459;-73
2022/09/29 09:49:30;;;;;;;3.30;2.73;;;20.90;99.90;;;;;;5127389;27;20435;-73
2022/09/29 09:52:02;;;;;;;4.00;3.00;;;20.90;99.90;;;;;;5096315;28;20423;-73
2022/09/29 09:54:44;;;;;;;3.30;3.00;;;21.00;99.90;;;;;;5127834;27;20434;-73
2022/09/29 09:57:28;;;;;;;3.87;2.90;;;21.00;99.90;;;;;;5107886;27;20419;-73
2022/09/29 10:00:13;;;;;;;4.23;3.83;;;21.00;99.90;;;;;;5104485;28;20447;-73
2022/09/29 10:02:48;;;;;;;7.90;7.00;;;21.10;99.90;;;;;;5115814;28;20819;-73
2022/09/29 10:05:20;;;;;;;19.30;12.50;;;21.10;99.90;;;;;;5095352;28;20503;-74
2022/09/29 10:07:47;;;;;;;6.37;4.47;;;21.10;99.90;;;;;;5104201;28;20430;-73
2022/09/29 10:10:21;;;;;;;12.97;8.73;;;21.10;99.90;;;;;;5120423;28;20534;-73
2022/09/29 10:12:51;;;;;;;12.17;7.50;;;21.20;99.90;;;;;;5119390;27;20424;-73
2022/09/29 10:15:28;;;;;;;5.07;4.17;;;21.20;99.90;;;;;;5118821;27;20458;-73
2022/09/29 10:18:22;;;;;;;23.53;12.13;;;21.30;99.90;;;;;;5120319;27;20422;-73
2022/09/29 10:20:48;;;;;;;15.77;9.37;;;21.30;99.90;;;;;;5112096;27;20459;-74
2022/09/29 10:23:33;;;;;;;18.57;8.93;;;21.30;99.90;;;;;;5124591;27;20419;-73
2022/09/29 10:26:17;;;;;;;25.93;17.63;;;21.40;99.90;;;;;;5127608;27;20841;-73
2022/09/29 10:29:00;;;;;;;2.93;2.63;;;21.50;99.90;;;;;;5129891;27;20427;-73
2022/09/29 10:31:32;;;;;;;5.53;3.73;;;21.50;99.90;;;;;;5127272;27;20474;-74
2022/09/29 10:34:22;;;;;;;2.37;2.17;;;21.60;99.90;;;;;;5103835;27;20525;-73
2022/09/29 10:37:06;;;;;;;3.10;1.80;;;21.60;99.90;;;;;;5129246;27;21025;-73
2022/09/29 10:39:47;;;;;;;2.50;2.30;;;21.60;99.90;;;;;;5126769;27;20438;-73
2022/09/29 10:42:23;;;;;;;2.90;2.13;;;21.60;99.90;;;;;;5127828;27;21010;-73
2022/09/29 10:45:12;;;;;;;2.20;2.00;;;21.60;99.90;;;;;;5107607;27;20547;-74
2022/09/29 10:47:39;;;;;;;6.10;2.30;;;21.70;99.90;;;;;;5115899;27;20431;-73
2022/09/29 10:50:10;;;;;;;2.43;1.90;;;21.70;99.90;;;;;;5122930;27;20539;-73
2022/09/29 10:52:36;;;;;;;3.00;1.97;;;21.80;99.90;;;;;;5120474;27;20420;-73
2022/09/29 10:55:03;;;;;;;1.70;1.60;;;21.80;99.90;;;;;;5119208;27;20467;-73
2022/09/29 10:57:32;;;;;;;2.30;2.07;;;21.80;99.90;;;;;;5120566;27;20916;-74
2022/09/29 10:59:58;;;;;;;5.73;2.10;;;21.90;99.90;;;;;;5111955;27;20541;-73
2022/09/29 11:02:35;;;;;;;2.50;1.80;;;21.90;99.90;;;;;;5107024;27;20764;-73
2022/09/29 11:05:16;;;;;;;2.67;2.13;;;21.90;99.90;;;;;;5129605;27;20477;-74
2022/09/29 11:07:47;;;;;;;2.57;1.90;;;22.00;99.90;;;;;;5125122;27;20427;-73
2022/09/29 11:10:32;;;;;;;2.70;1.87;;;22.00;99.90;;;;;;5121187;27;20447;-73
2022/09/29 11:13:06;;;;;;;2.10;2.00;;;22.10;99.90;;;;;;5104067;27;20473;-73
2022/09/29 11:15:39;;;;;;;1.97;1.83;;;22.10;99.90;;;;;;5122569;27;20523;-73
2022/09/29 11:18:25;;;;;;;2.10;1.77;;;22.10;99.90;;;;;;5105165;27;20432;-73
2022/09/29 11:21:17;;;;;;;2.83;2.03;;;22.20;99.90;;;;;;5125871;27;20436;-73
2022/09/29 11:24:06;;;;;;;2.30;1.80;;;22.30;99.90;;;;;;5104981;27;21195;-73
2022/09/29 11:26:51;;;;;;;2.90;2.03;;;22.30;99.90;;;;;;5104338;27;20548;-73
2022/09/29 11:29:35;;;;;;;2.57;2.27;;;22.40;99.90;;;;;;5107344;27;20420;-74
2022/09/29 11:32:38;;;;;;;7.20;2.20;;;22.40;99.90;;;;;;5109315;27;20806;-73
2022/09/29 11:35:28;;;;;;;3.40;2.20;;;22.50;99.90;;;;;;5112368;27;20519;-73
2022/09/29 11:38:19;;;;;;;3.33;1.93;;;22.50;99.90;;;;;;5100303;27;20440;-73
2022/09/29 11:41:02;;;;;;;1.80;1.70;;;22.50;99.90;;;;;;5106286;27;21013;-74
2022/09/29 11:43:49;;;;;;;1.90;1.70;;;22.60;99.90;;;;;;5129591;27;20455;-75
2022/09/29 11:46:57;;;;;;;2.80;1.60;;;22.60;99.90;;;;;;5123681;27;20511;-76
2022/09/29 11:49:32;;;;;;;1.57;1.47;;;22.70;99.90;;;;;;5106448;27;20479;-75
2022/09/29 11:52:15;;;;;;;3.57;1.53;;;22.70;99.90;;;;;;5127210;27;20426;-75
2022/09/29 11:54:55;;;;;;;3.33;2.37;;;22.60;99.90;;;;;;5105533;27;20538;-75
2022/09/29 11:57:43;;;;;;;2.43;2.00;;;22.70;99.90;;;;;;5110746;27;20431;-75
2022/09/29 12:00:17;;;;;;;1.87;1.77;;;22.70;99.90;;;;;;5125092;27;20780;-74
2022/09/29 12:03:15;;;;;;;1.90;1.80;;;22.70;99.90;;;;;;5103126;27;20509;-75
2022/09/29 12:06:06;;;;;;;8.70;5.20;;;22.70;99.90;;;;;;5126833;27;20481;-75
2022/09/29 12:08:59;;;;;;;8.43;6.87;;;22.70;99.90;;;;;;5122804;27;20773;-75
2022/09/29 12:11:44;;;;;;;4.53;2.20;;;22.70;99.90;;;;;;5130509;27;20803;-75
2022/09/29 12:14:23;;;;;;;3.33;1.90;;;22.60;99.90;;;;;;5111609;27;20420;-75
2022/09/29 12:17:01;;;;;;;3.40;2.60;;;22.50;99.90;;;;;;5129023;27;20428;-75
2022/09/29 12:19:30;;;;;;;2.43;2.23;;;22.50;99.90;;;;;;5121603;27;20784;-75
2022/09/29 12:22:02;;;;;;;4.73;2.40;;;22.50;99.90;;;;;;5124447;27;20480;-74
2022/09/29 12:24:50;;;;;;;3.60;2.30;;;22.40;99.90;;;;;;5122405;27;20459;-74
2022/09/29 12:27:32;;;;;;;2.20;2.10;;;22.40;99.90;;;;;;5103030;27;20484;-74
2022/09/29 12:30:12;;;;;;;4.23;3.70;;;22.30;99.90;;;;;;5109418;27;20500;-75
2022/09/29 12:32:43;;;;;;;3.50;2.83;;;22.30;99.90;;;;;;5129433;27;20436;-75
2022/09/29 12:35:25;;;;;;;3.43;3.13;;;22.20;99.90;;;;;;5114705;27;20447;-74
2022/09/29 12:38:07;;;;;;;3.97;2.53;;;22.20;99.90;;;;;;5121486;27;20527;-75
2022/09/29 12:40:40;;;;;;;5.20;3.03;;;22.20;99.90;;;;;;5112343;27;20828;-72
2022/09/29 12:43:46;;;;;;;3.87;3.47;;;22.20;99.90;;;;;;5106050;28;20999;-74
2022/09/29 12:46:18;;;;;;;3.03;2.73;;;22.20;99.90;;;;;;5067966;28;21033;-73
2022/09/29 12:48:50;;;;;;;4.83;2.83;;;22.20;99.90;;;;;;5105208;28;20935;-73
2022/09/29 12:51:30;;;;;;;3.83;3.10;;;22.20;99.90;;;;;;5109887;28;20463;-73
2022/09/29 12:54:07;;;;;;;2.67;2.47;;;22.20;99.90;;;;;;5112208;28;20429;-73
2022/09/29 12:56:39;;;;;;;3.47;3.17;;;22.10;99.90;;;;;;5107583;28;20455;-72
2022/09/29 12:59:18;;;;;;;4.23;3.60;;;22.10;99.90;;;;;;5110592;28;20423;-73
2022/09/29 13:01:50;;;;;;;4.67;3.70;;;22.10;99.90;;;;;;5111596;28;20408;-72
2022/09/29 13:04:36;;;;;;;6.73;3.30;;;22.10;99.90;;;;;;5107027;28;20430;-73
2022/09/29 13:07:26;;;;;;;3.77;3.20;;;22.10;99.90;;;;;;5109028;28;20927;-73